Airfield :







YOU CAN JOIN US ON...

 
LOGIN :

Register | Disclaimer

   EN    FR    IT 

 









Legend :    VFR   Marginal VFR   IFR   Intensive IFR   Very Intensive IFR
Visi :
Ceiling :
>= 8 km
>= 3000ft
5 to 8 km
1000 to 3000 ft
1500m to 5 km
500 to 1000 ft
800 to 1500m
200 to 500 ft
< 800m
< 200 ft
Symbols :   Thunderstorms  Fog  Heavy snow  Heavy precipitations  Wind > 20 kt







- Airport Elevation : 586 ft
- IATA code : YRJ


CYRJ - Roberval

CURRENT METAR :
  • 172100Z VRB02KT 40SM SCT043 SCT064 SCT078 SCT090 15/05 A3023 RMK SC3CU1AC1AC1 AC TR AC TR SLP242

EXPIRED METARs :
  • 172000Z 00000KT 40SM SCT042 BKN064 15/06 A3023 RMK SC3CU2 SLP242
  • 171900Z 10004KT 070V190 40SM SCT043 BKN064 15/05 A3023 RMK SC4CU2 SLP244
  • 171800Z VRB02KT 40SM SCT042 BKN065 14/04 A3025 RMK SC4CU2 SLP248

TAF TAF CYRJ
Valid from the 17 at 20:00 until the 18 at 02:00 UTC


171938Z 1720/1802 10005KT P6SM SCT040 BKN060
FM180000 VRB03KT P6SM FEW040 RMK NXT FCST WILL BE ISSUED AT 181145Z
No reported NOTAMs for that airfield.



MET'MAP, your aeronautical weather chart ! - Copyright ORBIFLY December 2007 - Disclaimer

ORBIFLY MET'MAP TEAM :

Programming & Development : Alexandra Zaïnal
Concept & Development : Baudouin d'Aumeries
Co-Development & Prog : Marc-Olivier Méhu
Technical & hardware support : Manuel Goepfert

Contact : metmap@orbifly.com




SOURCES & CREDITS :

   NOAA